createdAt,value
2018-06-09T00:00:14.681Z,19.70
2018-06-09T00:02:19.112Z,19.70
2018-06-09T00:04:23.590Z,19.70
2018-06-09T00:06:28.032Z,19.70
2018-06-09T00:08:32.501Z,19.60
2018-06-09T00:10:36.988Z,19.60
2018-06-09T00:12:41.477Z,19.60
2018-06-09T00:14:45.976Z,19.60
2018-06-09T00:16:50.399Z,19.60
2018-06-09T00:18:54.833Z,19.60
2018-06-09T00:20:59.301Z,19.50
2018-06-09T00:23:03.757Z,19.50
2018-06-09T00:25:08.227Z,19.50
2018-06-09T00:27:12.705Z,19.50
2018-06-09T00:29:17.151Z,19.50
2018-06-09T00:31:21.624Z,19.50
2018-06-09T00:33:26.113Z,19.40
2018-06-09T00:35:30.597Z,19.40
2018-06-09T00:37:35.041Z,19.40
2018-06-09T00:39:39.477Z,19.40
2018-06-09T00:41:43.965Z,19.40
2018-06-09T00:43:48.405Z,19.40
2018-06-09T00:45:52.902Z,19.30
2018-06-09T00:47:57.341Z,19.30
2018-06-09T00:50:01.861Z,19.20
2018-06-09T00:52:06.357Z,19.20
2018-06-09T00:54:10.847Z,19.20
2018-06-09T00:56:26.434Z,19.20
2018-06-09T00:58:30.877Z,19.20
2018-06-09T01:00:35.358Z,19.20
2018-06-09T01:02:39.846Z,19.20
2018-06-09T01:04:44.330Z,19.20
2018-06-09T01:06:48.812Z,19.20
2018-06-09T01:08:53.303Z,19.20
2018-06-09T01:10:58.342Z,19.20
2018-06-09T01:13:02.870Z,19.10
2018-06-09T01:15:07.301Z,19.10
2018-06-09T01:17:11.816Z,19.00
2018-06-09T01:21:20.208Z,19.00
2018-06-09T01:23:24.809Z,18.90
2018-06-09T01:25:29.302Z,18.90
2018-06-09T01:27:33.814Z,18.90
2018-06-09T01:29:38.228Z,18.90
2018-06-09T01:31:42.680Z,18.90
2018-06-09T01:33:47.302Z,18.90
2018-06-09T01:35:51.757Z,18.90
2018-06-09T01:37:56.223Z,18.90
2018-06-09T01:40:00.681Z,18.90
2018-06-09T01:42:05.110Z,18.90
2018-06-09T01:44:09.645Z,18.90
2018-06-09T01:46:14.110Z,18.90
2018-06-09T01:48:18.820Z,18.80
2018-06-09T01:50:23.287Z,18.80
2018-06-09T01:52:27.807Z,18.80
2018-06-09T01:54:32.323Z,18.80
2018-06-09T01:56:36.787Z,18.80
2018-06-09T01:58:41.297Z,18.80
2018-06-09T02:00:45.751Z,18.80
2018-06-09T02:02:50.238Z,18.70
2018-06-09T02:04:54.715Z,18.70
2018-06-09T02:09:03.712Z,18.70
2018-06-09T02:11:08.171Z,18.70
2018-06-09T02:13:12.592Z,18.70
2018-06-09T02:15:17.049Z,18.60
2018-06-09T02:17:21.525Z,18.60
2018-06-09T02:19:26.019Z,18.50
2018-06-09T02:21:30.459Z,18.60
2018-06-09T02:23:34.907Z,18.50
2018-06-09T02:25:39.402Z,18.50
2018-06-09T02:27:43.842Z,18.50
2018-06-09T02:29:48.324Z,18.50
2018-06-09T02:31:52.804Z,18.50
2018-06-09T02:33:57.274Z,18.50
2018-06-09T02:36:01.766Z,18.50
2018-06-09T02:38:06.205Z,18.50
2018-06-09T02:40:10.687Z,18.40
2018-06-09T02:42:15.141Z,18.40
2018-06-09T02:44:19.664Z,18.40
2018-06-09T02:46:24.233Z,18.30
2018-06-09T02:48:28.685Z,18.30
2018-06-09T02:50:33.202Z,18.30
2018-06-09T02:52:37.707Z,18.30
2018-06-09T02:54:46.315Z,18.30
2018-06-09T02:56:51.757Z,18.30
2018-06-09T02:58:56.197Z,18.30
2018-06-09T03:01:00.737Z,18.30
2018-06-09T03:03:05.234Z,18.30
2018-06-09T03:05:09.727Z,18.30
2018-06-09T03:07:14.210Z,18.30
2018-06-09T03:09:18.668Z,18.30
2018-06-09T03:11:23.134Z,18.30
2018-06-09T03:13:27.600Z,18.30
2018-06-09T03:15:32.077Z,18.30
2018-06-09T03:17:36.640Z,18.30
2018-06-09T03:19:41.085Z,18.30
2018-06-09T03:21:45.602Z,18.30
2018-06-09T03:23:50.061Z,18.20
2018-06-09T03:25:54.578Z,18.30
2018-06-09T03:27:59.106Z,18.20
2018-06-09T03:30:03.623Z,18.20
2018-06-09T03:32:08.181Z,18.20
2018-06-09T03:34:12.705Z,18.20
2018-06-09T03:36:17.139Z,18.10
2018-06-09T03:38:21.647Z,18.10
2018-06-09T03:40:26.099Z,18.10
2018-06-09T03:42:30.600Z,18.10
2018-06-09T03:44:35.050Z,18.00
2018-06-09T03:46:39.491Z,18.00
2018-06-09T03:48:43.981Z,18.00
2018-06-09T03:50:48.402Z,18.00
2018-06-09T03:52:53.783Z,18.10
2018-06-09T03:54:58.375Z,18.10
2018-06-09T03:57:02.825Z,18.00
2018-06-09T03:59:07.325Z,18.00
2018-06-09T04:01:11.757Z,17.90
2018-06-09T04:03:16.263Z,18.00
2018-06-09T04:05:20.728Z,17.90
2018-06-09T04:07:25.178Z,17.90
2018-06-09T04:09:29.663Z,17.90
2018-06-09T04:11:34.164Z,17.90
2018-06-09T04:13:38.644Z,17.90
2018-06-09T04:15:43.122Z,17.90
2018-06-09T04:17:47.659Z,17.90
2018-06-09T04:19:52.160Z,17.90
2018-06-09T04:21:56.645Z,18.00
2018-06-09T04:24:01.200Z,18.00
2018-06-09T04:26:05.845Z,18.00
2018-06-09T04:28:10.348Z,18.00
2018-06-09T04:30:14.836Z,18.00
2018-06-09T04:32:19.278Z,18.00
2018-06-09T04:34:23.799Z,18.00
2018-06-09T04:36:28.241Z,18.00
2018-06-09T04:38:32.712Z,18.00
2018-06-09T04:42:41.222Z,18.00
2018-06-09T04:44:45.743Z,18.00
2018-06-09T04:46:50.230Z,18.00
2018-06-09T04:48:54.698Z,18.10
2018-06-09T04:50:59.302Z,18.10
2018-06-09T04:53:03.762Z,18.20
2018-06-09T04:55:08.235Z,18.20
2018-06-09T04:57:12.775Z,18.10
2018-06-09T04:59:17.212Z,18.10
2018-06-09T05:01:21.707Z,18.00
2018-06-09T05:03:26.177Z,18.00
2018-06-09T05:05:30.677Z,18.00
2018-06-09T05:07:35.218Z,18.00
2018-06-09T05:09:39.673Z,18.00
2018-06-09T05:11:44.192Z,18.10
2018-06-09T05:13:48.673Z,18.20
2018-06-09T05:15:53.148Z,18.20
2018-06-09T05:17:57.624Z,18.20
2018-06-09T05:20:02.081Z,18.20
2018-06-09T05:22:06.549Z,18.20
2018-06-09T05:24:11.018Z,18.20
2018-06-09T05:26:15.541Z,18.30
2018-06-09T05:28:19.985Z,18.30
2018-06-09T05:30:24.428Z,18.40
2018-06-09T05:32:28.880Z,18.40
2018-06-09T05:34:33.361Z,18.50
2018-06-09T05:36:37.834Z,18.50
2018-06-09T05:38:42.276Z,18.50
2018-06-09T05:40:46.746Z,18.70
2018-06-09T05:42:51.246Z,18.80
2018-06-09T05:44:55.704Z,18.90
2018-06-09T05:47:00.207Z,19.00
2018-06-09T05:49:04.646Z,19.00
2018-06-09T05:51:09.110Z,19.10
2018-06-09T05:53:13.628Z,19.20
2018-06-09T05:55:18.128Z,19.20
2018-06-09T05:57:22.617Z,19.30
2018-06-09T05:59:27.099Z,19.30
2018-06-09T06:01:31.613Z,19.50
2018-06-09T06:03:36.165Z,19.60
2018-06-09T06:05:41.625Z,19.60
2018-06-09T06:07:46.089Z,19.70
2018-06-09T06:09:50.593Z,19.70
2018-06-09T06:11:57.098Z,19.60
2018-06-09T06:14:01.726Z,19.60
2018-06-09T06:16:06.281Z,19.70
2018-06-09T06:18:10.793Z,19.80
2018-06-09T06:20:15.334Z,19.90
2018-06-09T06:22:19.853Z,20.00
2018-06-09T06:24:24.559Z,20.20
2018-06-09T06:26:29.083Z,20.20
2018-06-09T06:28:33.630Z,20.40
2018-06-09T06:30:38.485Z,20.40
2018-06-09T06:32:42.991Z,20.30
2018-06-09T06:34:47.561Z,20.30
2018-06-09T06:36:52.071Z,20.20
2018-06-09T06:38:56.556Z,20.10
2018-06-09T06:41:01.103Z,20.20
2018-06-09T06:43:05.598Z,20.20
2018-06-09T06:45:10.091Z,20.30
2018-06-09T06:47:14.613Z,20.40
2018-06-09T06:49:19.807Z,20.40
2018-06-09T06:51:25.745Z,20.50
2018-06-09T06:53:30.421Z,20.50
2018-06-09T06:55:34.941Z,20.50
2018-06-09T06:57:39.427Z,20.40
2018-06-09T06:59:43.872Z,20.40
2018-06-09T07:01:48.725Z,20.40
2018-06-09T07:03:53.232Z,20.30
2018-06-09T07:05:57.769Z,20.30
2018-06-09T07:08:02.289Z,20.20
2018-06-09T07:10:06.750Z,20.20
2018-06-09T07:12:11.240Z,20.20
2018-06-09T07:14:15.694Z,20.10
2018-06-09T07:18:24.245Z,20.30
2018-06-09T07:20:28.805Z,20.40
2018-06-09T07:22:33.475Z,20.40
2018-06-09T07:24:37.936Z,20.40
2018-06-09T07:26:42.528Z,20.40
2018-06-09T07:28:46.997Z,20.50
2018-06-09T07:30:51.471Z,20.50
2018-06-09T07:32:56.087Z,20.60
2018-06-09T07:35:00.764Z,20.60
2018-06-09T07:37:05.249Z,20.60
2018-06-09T07:39:09.751Z,20.70
2018-06-09T07:41:14.844Z,20.70
2018-06-09T07:43:19.402Z,20.80
2018-06-09T07:45:23.967Z,20.80
2018-06-09T07:47:28.564Z,20.90
2018-06-09T07:49:33.068Z,20.90
2018-06-09T07:51:37.555Z,20.90
2018-06-09T07:53:42.078Z,21.00
2018-06-09T07:55:46.559Z,21.20
2018-06-09T07:57:51.078Z,21.30
2018-06-09T07:59:55.601Z,21.50
2018-06-09T08:02:00.183Z,21.60
2018-06-09T08:04:04.805Z,21.70
2018-06-09T08:06:09.345Z,21.90
2018-06-09T08:08:13.917Z,22.10
2018-06-09T08:10:18.393Z,22.20
2018-06-09T08:12:22.888Z,22.30
2018-06-09T08:14:27.463Z,22.60
2018-06-09T08:16:31.954Z,22.70
2018-06-09T08:18:36.519Z,22.90
2018-06-09T08:20:40.987Z,23.00
2018-06-09T08:22:45.487Z,23.20
2018-06-09T08:24:50.028Z,23.40
2018-06-09T08:26:54.575Z,23.50
2018-06-09T08:28:59.077Z,23.80
2018-06-09T08:31:03.603Z,23.90
2018-06-09T08:33:08.159Z,24.00
2018-06-09T08:35:12.675Z,24.20
2018-06-09T08:39:21.127Z,24.40
2018-06-09T08:41:25.609Z,24.60
2018-06-09T08:43:30.111Z,24.60
2018-06-09T08:45:34.620Z,24.60
2018-06-09T08:47:39.106Z,24.70
2018-06-09T08:49:43.631Z,24.70
2018-06-09T08:51:48.073Z,24.90
2018-06-09T08:53:52.592Z,25.20
2018-06-09T08:55:57.071Z,25.40
2018-06-09T08:58:01.782Z,25.70
2018-06-09T09:00:06.277Z,26.00
2018-06-09T09:02:10.770Z,26.20
2018-06-09T09:04:15.280Z,26.30
2018-06-09T09:06:19.705Z,26.50
2018-06-09T09:08:24.155Z,26.60
2018-06-09T09:10:28.664Z,26.80
2018-06-09T09:12:33.160Z,27.00
2018-06-09T09:14:37.662Z,27.20
2018-06-09T09:16:42.120Z,27.20
2018-06-09T09:18:46.676Z,27.20
2018-06-09T09:20:51.146Z,27.10
2018-06-09T09:22:55.646Z,26.90
2018-06-09T09:25:00.132Z,27.10
2018-06-09T09:27:04.596Z,27.10
2018-06-09T09:29:09.025Z,27.10
2018-06-09T09:31:13.541Z,27.10
2018-06-09T09:33:18.009Z,27.10
2018-06-09T09:35:22.606Z,27.20
2018-06-09T09:37:27.098Z,27.30
2018-06-09T09:39:31.615Z,27.40
2018-06-09T09:41:36.237Z,27.50
2018-06-09T09:43:40.769Z,27.70
2018-06-09T09:45:45.284Z,27.80
2018-06-09T09:47:49.801Z,28.00
2018-06-09T09:49:54.492Z,28.10
2018-06-09T09:51:59.022Z,28.10
2018-06-09T09:54:03.569Z,28.10
2018-06-09T09:56:08.199Z,27.90
2018-06-09T09:58:12.714Z,27.70
2018-06-09T10:00:23.337Z,27.60
2018-06-09T10:02:27.866Z,27.70
2018-06-09T10:04:32.337Z,28.00
2018-06-09T10:06:36.876Z,27.90
2018-06-09T10:08:41.624Z,28.00
2018-06-09T10:10:47.038Z,28.10
2018-06-09T10:12:51.538Z,28.30
2018-06-09T10:14:56.031Z,28.50
2018-06-09T10:17:00.576Z,28.60
2018-06-09T10:19:05.271Z,28.70
2018-06-09T10:21:09.795Z,28.80
2018-06-09T10:23:14.316Z,28.90
2018-06-09T10:25:18.809Z,28.90
2018-06-09T10:27:23.308Z,29.10
2018-06-09T10:29:27.797Z,29.30
2018-06-09T10:31:32.374Z,29.60
2018-06-09T10:33:36.865Z,29.60
2018-06-09T10:35:44.294Z,29.80
2018-06-09T10:37:48.789Z,29.90
2018-06-09T10:39:53.209Z,29.80
2018-06-09T10:41:57.701Z,29.70
2018-06-09T10:44:02.152Z,29.70
2018-06-09T10:46:06.605Z,29.80
2018-06-09T10:48:11.208Z,29.80
2018-06-09T10:50:15.668Z,30.00
2018-06-09T10:52:20.176Z,30.10
2018-06-09T10:54:24.645Z,30.40
2018-06-09T10:56:29.119Z,30.50
2018-06-09T10:58:33.722Z,30.60
2018-06-09T11:00:38.157Z,30.70
2018-06-09T11:02:42.682Z,30.70
2018-06-09T11:04:47.113Z,30.50
2018-06-09T11:06:51.608Z,30.60
2018-06-09T11:08:56.122Z,30.60
2018-06-09T11:11:01.193Z,30.70
2018-06-09T11:13:05.822Z,30.60
2018-06-09T11:15:10.280Z,30.40
2018-06-09T11:17:14.812Z,30.40
2018-06-09T11:21:23.375Z,30.40
2018-06-09T11:23:27.841Z,30.50
2018-06-09T11:25:32.322Z,30.70
2018-06-09T11:27:36.781Z,30.90
2018-06-09T11:29:41.244Z,31.00
2018-06-09T11:31:45.725Z,30.70
2018-06-09T11:33:50.291Z,30.40
2018-06-09T11:35:54.765Z,30.00
2018-06-09T11:37:59.220Z,29.70
2018-06-09T11:40:03.771Z,29.40
2018-06-09T11:42:08.229Z,29.60
2018-06-09T11:44:12.710Z,29.70
2018-06-09T11:46:17.152Z,29.50
2018-06-09T11:48:21.603Z,29.30
2018-06-09T11:50:26.139Z,29.40
2018-06-09T11:52:30.633Z,29.50
2018-06-09T11:54:35.126Z,29.90
2018-06-09T11:56:39.625Z,30.20
2018-06-09T11:58:44.117Z,30.30
2018-06-09T12:00:48.614Z,30.50
2018-06-09T12:02:53.080Z,30.70
2018-06-09T12:04:57.599Z,30.90
2018-06-09T12:07:02.202Z,30.90
2018-06-09T12:09:08.099Z,30.90
2018-06-09T12:11:12.618Z,31.00
2018-06-09T12:13:17.054Z,31.10
2018-06-09T12:15:21.555Z,31.20
2018-06-09T12:17:26.018Z,31.40
2018-06-09T12:19:30.464Z,31.50
2018-06-09T12:21:34.961Z,31.20
2018-06-09T12:23:39.447Z,30.80
2018-06-09T12:25:43.925Z,30.50
2018-06-09T12:27:48.417Z,30.10
2018-06-09T12:29:52.965Z,29.80
2018-06-09T12:31:57.414Z,29.70
2018-06-09T12:34:01.922Z,29.70
2018-06-09T12:36:06.421Z,29.70
2018-06-09T12:38:10.901Z,29.60
2018-06-09T12:40:15.405Z,29.50
2018-06-09T12:42:19.858Z,29.40
2018-06-09T12:44:24.298Z,29.30
2018-06-09T12:46:28.773Z,29.20
2018-06-09T12:48:33.272Z,29.10
2018-06-09T12:50:37.755Z,29.00
2018-06-09T12:52:42.212Z,29.00
2018-06-09T12:54:46.708Z,28.90
2018-06-09T12:56:51.215Z,28.90
2018-06-09T12:58:55.660Z,28.90
2018-06-09T13:01:00.840Z,28.80
2018-06-09T13:03:05.325Z,28.80
2018-06-09T13:05:09.896Z,28.80
2018-06-09T13:07:14.392Z,28.80
2018-06-09T13:09:18.864Z,28.70
2018-06-09T13:11:23.418Z,28.60
2018-06-09T13:13:27.909Z,28.50
2018-06-09T13:15:32.373Z,28.50
2018-06-09T13:17:36.873Z,28.40
2018-06-09T13:19:41.361Z,28.40
2018-06-09T13:21:45.856Z,28.30
2018-06-09T13:23:50.319Z,28.30
2018-06-09T13:25:54.789Z,28.30
2018-06-09T13:27:59.274Z,28.30
2018-06-09T13:30:03.801Z,28.30
2018-06-09T13:32:08.311Z,28.30
2018-06-09T13:34:12.804Z,28.40
2018-06-09T13:36:17.293Z,28.40
2018-06-09T13:40:25.849Z,28.50
2018-06-09T13:42:30.371Z,28.60
2018-06-09T13:44:34.879Z,28.70
2018-06-09T13:46:39.384Z,28.70
2018-06-09T13:50:47.879Z,28.70
2018-06-09T13:52:52.394Z,28.80
2018-06-09T13:54:56.869Z,28.90
2018-06-09T13:57:01.476Z,28.90
2018-06-09T13:59:06.018Z,29.00
2018-06-09T14:01:10.489Z,28.90
2018-06-09T14:03:15.000Z,28.70
2018-06-09T14:05:19.513Z,28.30
2018-06-09T14:07:23.993Z,28.00
2018-06-09T14:09:28.526Z,27.70
2018-06-09T14:11:34.767Z,27.40
2018-06-09T14:13:39.538Z,27.10
2018-06-09T14:15:44.041Z,26.80
2018-06-09T14:17:49.022Z,26.70
2018-06-09T14:19:53.661Z,26.50
2018-06-09T14:21:58.571Z,26.30
2018-06-09T14:24:05.532Z,26.10
2018-06-09T14:26:10.348Z,26.00
2018-06-09T14:28:14.868Z,25.90
2018-06-09T14:30:19.344Z,26.00
2018-06-09T14:32:23.828Z,26.00
2018-06-09T14:38:36.240Z,26.40
2018-06-09T14:40:40.718Z,26.40
2018-06-09T14:42:45.205Z,26.30
2018-06-09T14:44:49.723Z,26.40
2018-06-09T14:48:58.358Z,26.30
2018-06-09T14:51:02.899Z,26.30
2018-06-09T14:53:07.307Z,26.30
2018-06-09T14:55:11.784Z,26.30
2018-06-09T14:57:16.346Z,26.20
2018-06-09T14:59:20.816Z,26.20
2018-06-09T15:01:25.285Z,26.10
2018-06-09T15:03:29.737Z,26.10
2018-06-09T15:05:34.270Z,26.10
2018-06-09T15:07:38.719Z,26.20
2018-06-09T15:09:43.212Z,26.40
2018-06-09T15:11:47.658Z,26.50
2018-06-09T15:13:52.184Z,26.60
2018-06-09T15:15:56.673Z,26.60
2018-06-09T15:18:01.195Z,26.60
2018-06-09T15:22:09.642Z,26.50
2018-06-09T15:24:14.103Z,26.20
2018-06-09T15:26:18.613Z,25.90
2018-06-09T15:28:23.100Z,25.70
2018-06-09T15:30:27.590Z,25.50
2018-06-09T15:32:32.037Z,25.30
2018-06-09T15:34:36.629Z,25.20
2018-06-09T15:36:41.101Z,25.20
2018-06-09T15:38:45.608Z,25.20
2018-06-09T15:40:50.189Z,25.10
2018-06-09T15:42:54.709Z,25.00
2018-06-09T15:44:59.228Z,24.90
2018-06-09T15:47:03.810Z,24.90
2018-06-09T15:49:08.322Z,24.90
2018-06-09T15:51:12.849Z,24.90
2018-06-09T15:53:17.947Z,24.70
2018-06-09T15:55:22.448Z,24.60
2018-06-09T15:57:27.625Z,24.60
2018-06-09T15:59:32.159Z,24.50
2018-06-09T16:01:36.801Z,24.50
2018-06-09T16:03:41.365Z,24.40
2018-06-09T16:05:45.964Z,24.30
2018-06-09T16:07:50.511Z,24.30
2018-06-09T16:09:55.002Z,24.20
2018-06-09T16:11:59.640Z,24.20
2018-06-09T16:14:05.262Z,24.20
2018-06-09T16:16:12.072Z,24.10
2018-06-09T16:18:16.622Z,23.90
2018-06-09T16:20:21.112Z,23.80
2018-06-09T16:22:26.202Z,23.80
2018-06-09T16:24:30.728Z,23.70
2018-06-09T16:28:39.404Z,23.70
2018-06-09T16:30:43.990Z,23.60
2018-06-09T16:32:48.685Z,23.40
2018-06-09T16:34:53.586Z,23.40
2018-06-09T16:36:58.273Z,23.30
2018-06-09T16:39:02.816Z,23.30
2018-06-09T16:41:07.389Z,23.20
2018-06-09T16:45:15.967Z,23.30
2018-06-09T16:47:20.527Z,23.30
2018-06-09T16:49:25.080Z,23.30
2018-06-09T16:51:29.550Z,23.20
2018-06-09T16:53:34.076Z,23.20
2018-06-09T16:55:38.596Z,23.10
2018-06-09T16:57:43.137Z,23.20
2018-06-09T16:59:48.111Z,23.10
2018-06-09T17:01:52.667Z,23.00
2018-06-09T17:03:57.464Z,23.00
2018-06-09T17:06:02.031Z,22.90
2018-06-09T17:08:06.574Z,22.90
2018-06-09T17:10:12.293Z,22.90
2018-06-09T17:12:16.873Z,22.80
2018-06-09T17:14:21.492Z,22.70
2018-06-09T17:16:26.141Z,22.70
2018-06-09T17:18:30.658Z,22.50
2018-06-09T17:22:39.297Z,22.30
2018-06-09T17:24:50.902Z,22.20
2018-06-09T17:26:55.452Z,22.10
2018-06-09T17:29:01.067Z,22.10
2018-06-09T17:31:05.568Z,22.10
2018-06-09T17:33:10.331Z,22.10
2018-06-09T17:35:15.095Z,22.10
2018-06-09T17:37:19.582Z,22.20
2018-06-09T17:39:24.232Z,22.20
2018-06-09T17:41:29.034Z,22.30
2018-06-09T17:43:33.477Z,22.30
2018-06-09T17:45:38.006Z,22.30
2018-06-09T17:47:42.775Z,22.40
2018-06-09T17:49:47.245Z,22.20
2018-06-09T17:51:52.105Z,22.20
2018-06-09T17:53:56.610Z,22.10
2018-06-09T17:56:03.659Z,22.00
2018-06-09T17:58:08.184Z,22.00
2018-06-09T18:00:13.188Z,22.00
2018-06-09T18:04:22.751Z,22.10
2018-06-09T18:06:27.948Z,22.10
2018-06-09T18:08:32.934Z,22.10
2018-06-09T18:10:38.141Z,22.00
2018-06-09T18:14:47.236Z,22.10
2018-06-09T18:16:51.809Z,22.10
2018-06-09T18:18:56.598Z,22.10
2018-06-09T18:21:01.573Z,22.10
2018-06-09T18:23:06.449Z,22.10
2018-06-09T18:25:10.956Z,22.10
2018-06-09T18:27:15.457Z,22.10
2018-06-09T18:29:19.932Z,22.10
2018-06-09T18:31:24.466Z,22.10
2018-06-09T18:33:30.306Z,22.00
2018-06-09T18:35:35.364Z,22.00
2018-06-09T18:37:40.279Z,22.00
2018-06-09T18:39:44.864Z,22.00
2018-06-09T18:41:49.489Z,22.00
2018-06-09T18:43:55.145Z,22.00
2018-06-09T18:46:00.575Z,21.90
2018-06-09T18:48:05.934Z,21.90
2018-06-09T18:50:10.990Z,21.80
2018-06-09T18:52:16.387Z,21.70
2018-06-09T18:54:20.912Z,21.70
2018-06-09T18:56:25.428Z,21.60
2018-06-09T18:58:30.114Z,21.50
2018-06-09T19:02:38.928Z,21.50
2018-06-09T19:04:43.503Z,21.50
2018-06-09T19:06:48.804Z,21.50
2018-06-09T19:08:53.436Z,21.50
2018-06-09T19:10:57.912Z,21.50
2018-06-09T19:13:02.647Z,21.50
2018-06-09T19:15:10.289Z,21.50
2018-06-09T19:17:15.769Z,21.50
2018-06-09T19:19:20.890Z,21.40
2018-06-09T19:21:25.544Z,21.40
2018-06-09T19:23:30.070Z,21.40
2018-06-09T19:25:34.881Z,21.40
2018-06-09T19:27:39.401Z,21.40
2018-06-09T19:29:44.001Z,21.40
2018-06-09T19:31:48.453Z,21.40
2018-06-09T19:33:53.032Z,21.30
2018-06-09T19:35:57.538Z,21.30
2018-06-09T19:38:02.777Z,21.30
2018-06-09T19:40:07.330Z,21.30
2018-06-09T19:42:11.792Z,21.30
2018-06-09T19:44:16.369Z,21.30
2018-06-09T19:46:20.851Z,21.30
2018-06-09T19:48:25.429Z,21.20
2018-06-09T19:50:31.820Z,21.30
2018-06-09T19:52:37.429Z,21.20
2018-06-09T19:54:41.985Z,21.20
2018-06-09T19:56:47.525Z,21.20
2018-06-09T19:58:52.289Z,21.20
2018-06-09T20:00:56.952Z,21.20
2018-06-09T20:03:01.546Z,21.20
2018-06-09T20:05:06.106Z,21.20
2018-06-09T20:07:11.491Z,21.10
2018-06-09T20:09:16.121Z,21.00
2018-06-09T20:11:20.655Z,21.00
2018-06-09T20:13:27.685Z,21.00
2018-06-09T20:15:32.272Z,20.90
2018-06-09T20:17:36.838Z,20.90
2018-06-09T20:19:41.543Z,20.80
2018-06-09T20:21:46.211Z,20.70
2018-06-09T20:23:50.685Z,20.70
2018-06-09T20:25:55.176Z,20.70
2018-06-09T20:27:59.748Z,20.70
2018-06-09T20:30:04.323Z,20.70
2018-06-09T20:32:08.845Z,20.70
2018-06-09T20:34:13.418Z,20.70
2018-06-09T20:36:17.986Z,20.60
2018-06-09T20:38:22.524Z,20.60
2018-06-09T20:40:27.070Z,20.60
2018-06-09T20:42:31.603Z,20.60
2018-06-09T20:44:36.128Z,20.60
2018-06-09T20:46:41.165Z,20.60
2018-06-09T20:48:45.866Z,20.60
2018-06-09T20:50:50.707Z,20.50
2018-06-09T20:52:55.298Z,20.40
2018-06-09T20:54:59.838Z,20.20
2018-06-09T20:57:05.384Z,20.10
2018-06-09T20:59:09.871Z,20.10
2018-06-09T21:01:16.147Z,20.10
2018-06-09T21:03:20.996Z,20.10
2018-06-09T21:05:25.461Z,20.10
2018-06-09T21:07:30.010Z,20.10
2018-06-09T21:09:35.983Z,20.10
2018-06-09T21:11:40.855Z,20.10
2018-06-09T21:13:45.357Z,20.00
2018-06-09T21:15:49.848Z,19.90
2018-06-09T21:19:58.447Z,19.80
2018-06-09T21:22:02.973Z,19.80
2018-06-09T21:24:07.467Z,19.70
2018-06-09T21:26:12.089Z,19.50
2018-06-09T21:28:21.828Z,19.40
2018-06-09T21:30:31.506Z,19.50
2018-06-09T21:32:41.217Z,19.50
2018-06-09T21:36:00.267Z,19.50
2018-06-09T21:38:10.054Z,19.50
2018-06-09T21:40:21.510Z,19.50
2018-06-09T21:42:26.130Z,19.60
2018-06-09T21:44:36.051Z,19.60
2018-06-09T21:46:45.873Z,19.70
2018-06-09T21:48:50.424Z,19.70
2018-06-09T21:50:54.811Z,19.80
2018-06-09T21:52:59.327Z,19.80
2018-06-09T21:55:04.394Z,19.80
2018-06-09T21:57:10.367Z,19.80
2018-06-09T21:59:14.928Z,19.80
2018-06-09T22:01:19.449Z,19.70
2018-06-09T22:03:24.788Z,19.70
2018-06-09T22:05:29.676Z,19.60
2018-06-09T22:07:34.270Z,19.50
2018-06-09T22:09:38.847Z,19.50
2018-06-09T22:11:43.325Z,19.40
2018-06-09T22:13:47.883Z,19.40
2018-06-09T22:15:52.396Z,19.50
2018-06-09T22:17:56.918Z,19.50
2018-06-09T22:20:02.416Z,19.60
2018-06-09T22:22:07.078Z,19.60
2018-06-09T22:24:11.599Z,19.50
2018-06-09T22:26:16.995Z,19.50
2018-06-09T22:28:21.534Z,19.50
2018-06-09T22:30:26.037Z,19.50
2018-06-09T22:32:30.606Z,19.50
2018-06-09T22:34:35.120Z,19.40
2018-06-09T22:36:39.623Z,19.40
2018-06-09T22:38:44.088Z,19.40
2018-06-09T22:40:48.541Z,19.40
2018-06-09T22:42:53.065Z,19.50
2018-06-09T22:44:57.557Z,19.50
2018-06-09T22:47:02.037Z,19.50
2018-06-09T22:49:06.530Z,19.60
2018-06-09T22:51:10.997Z,19.50
2018-06-09T22:53:15.567Z,19.50
2018-06-09T22:55:20.014Z,19.50
2018-06-09T22:57:24.460Z,19.50
2018-06-09T22:59:28.934Z,19.40
2018-06-09T23:01:33.377Z,19.40
2018-06-09T23:03:37.857Z,19.40
2018-06-09T23:05:42.324Z,19.40
2018-06-09T23:07:46.828Z,19.30
2018-06-09T23:09:51.298Z,19.30
2018-06-09T23:11:55.764Z,19.30
2018-06-09T23:14:00.246Z,19.40
2018-06-09T23:16:04.701Z,19.40
2018-06-09T23:18:09.190Z,19.40
2018-06-09T23:20:13.864Z,19.30
2018-06-09T23:22:18.438Z,19.30
2018-06-09T23:24:22.912Z,19.20
2018-06-09T23:26:27.339Z,19.20
2018-06-09T23:28:31.864Z,19.10
2018-06-09T23:30:36.362Z,19.10
2018-06-09T23:32:41.376Z,19.00
2018-06-09T23:34:45.890Z,19.10
2018-06-09T23:36:50.343Z,19.10
2018-06-09T23:38:54.810Z,19.10
2018-06-09T23:40:59.299Z,19.10
2018-06-09T23:43:03.785Z,19.10
2018-06-09T23:45:08.304Z,19.10
2018-06-09T23:47:12.835Z,19.10
2018-06-09T23:49:17.345Z,19.00
2018-06-09T23:51:21.793Z,19.00
2018-06-09T23:53:26.263Z,19.00
2018-06-09T23:55:30.732Z,19.00
2018-06-09T23:57:35.261Z,19.00
2018-06-09T23:59:39.794Z,19.00
